Main page
METAR-TAF:

METAR-TAF

Airports :

Sulaymaniyah, Iraq

Sulaimaniyah International Airport

latitude: 35-33-39N, longitude: 45-18-52E, elevation: 760 m

Current weather observation

The report was made 1 hour and 22 minutes ago, at 19:00 UTC
Wind 4 kt from the North
Temperature 4°C
Humidity 70%
Pressure 1027 hPa
Visibility 10 km or more
no clouds below 1500 m and no cumulonimbus

METAR: ORSU 181900Z 01004KT CAVOK 04/M01 Q1027

Time: 23:22 (20:22 UTC)

Forecast

The report was made 9 hours and 22 minutes ago, at 11:00 UTC
Forecast valid from 18 at 12 UTC to 19 at 12 UTC
Wind 5 kt from the Northwest
Visibility 10 km or more
no clouds below 1500 m and no cumulonimbus
Temporary
from 19 at 06 UTC to 19 at 12 UTC
Wind 5 kt from the Southeast

TAF: ORSU 181100Z 1812/1912 31005KT CAVOK TEMPO 1906/1912 13005KT

Weather observations and forecasts of more than 4000 airports (METAR and TAF reports).

The available stations are represented by yellow and red dots on the map.

Hover mouse over dot to see the name of the station.

Then click to see weather observations and forecasts.

To change the map : click on the green buttons with a black cross to zoom in, on the green button with a dash to zoom out, or on the green arrows for adjacent maps.


METAR-TAF: